createdAt,value
2018-07-10T00:00:30.374Z,16.53
2018-07-10T00:01:31.087Z,16.50
2018-07-10T00:02:31.802Z,16.53
2018-07-10T00:03:32.519Z,16.50
2018-07-10T00:04:33.230Z,16.51
2018-07-10T00:05:33.940Z,16.47
2018-07-10T00:06:34.665Z,16.43
2018-07-10T00:07:35.376Z,16.42
2018-07-10T00:08:36.086Z,16.35
2018-07-10T00:09:36.797Z,16.50
2018-07-10T00:10:37.510Z,16.49
2018-07-10T00:11:38.219Z,16.51
2018-07-10T00:12:38.944Z,16.41
2018-07-10T00:13:39.657Z,16.54
2018-07-10T00:14:40.370Z,16.54
2018-07-10T00:15:41.080Z,16.56
2018-07-10T00:16:41.806Z,16.54
2018-07-10T00:17:42.531Z,16.54
2018-07-10T00:18:43.245Z,16.50
2018-07-10T00:19:43.956Z,16.47
2018-07-10T00:20:44.668Z,16.46
2018-07-10T00:21:45.379Z,16.49
2018-07-10T00:22:46.091Z,16.36
2018-07-10T00:23:46.804Z,16.50
2018-07-10T00:24:47.516Z,16.53
2018-07-10T00:25:48.240Z,16.41
2018-07-10T00:26:48.953Z,16.41
2018-07-10T00:27:49.668Z,16.35
2018-07-10T00:28:50.383Z,16.42
2018-07-10T00:29:51.111Z,16.35
2018-07-10T00:30:51.837Z,16.38
2018-07-10T00:31:52.549Z,16.39
2018-07-10T00:32:53.260Z,16.32
2018-07-10T00:33:53.985Z,16.39
2018-07-10T00:34:54.700Z,16.36
2018-07-10T00:35:55.413Z,16.36
2018-07-10T00:36:56.125Z,16.39
2018-07-10T00:37:56.838Z,16.35
2018-07-10T00:38:57.564Z,16.38
2018-07-10T00:39:58.275Z,16.43
2018-07-10T00:40:58.987Z,16.36
2018-07-10T00:41:59.714Z,16.39
2018-07-10T00:43:00.426Z,16.36
2018-07-10T00:44:01.139Z,16.38
2018-07-10T00:45:01.853Z,16.39
2018-07-10T00:46:02.568Z,16.36
2018-07-10T00:47:03.278Z,16.32
2018-07-10T00:48:03.991Z,16.29
2018-07-10T00:49:04.704Z,16.29
2018-07-10T00:50:05.420Z,16.28
2018-07-10T00:51:06.143Z,16.31
2018-07-10T00:52:06.854Z,16.29
2018-07-10T00:53:07.580Z,16.21
2018-07-10T00:54:08.304Z,16.23
2018-07-10T00:55:09.021Z,16.24
2018-07-10T00:56:09.747Z,16.24
2018-07-10T00:57:10.460Z,16.20
2018-07-10T00:58:11.170Z,16.21
2018-07-10T00:59:11.882Z,16.31
2018-07-10T01:00:12.593Z,16.23
2018-07-10T01:01:13.304Z,16.29
2018-07-10T01:02:14.017Z,16.23
2018-07-10T01:03:14.741Z,16.23
2018-07-10T01:04:15.456Z,16.21
2018-07-10T01:05:16.168Z,16.09
2018-07-10T01:06:16.883Z,16.29
2018-07-10T01:07:17.597Z,16.09
2018-07-10T01:08:18.309Z,16.09
2018-07-10T01:09:19.020Z,16.23
2018-07-10T01:10:19.745Z,16.23
2018-07-10T01:11:20.474Z,16.21
2018-07-10T01:12:21.190Z,16.09
2018-07-10T01:13:21.910Z,16.10
2018-07-10T01:14:22.624Z,16.05
2018-07-10T01:15:23.346Z,16.04
2018-07-10T01:16:24.058Z,15.97
2018-07-10T01:17:24.771Z,15.92
2018-07-10T01:18:25.498Z,16.00
2018-07-10T01:19:26.215Z,15.98
2018-07-10T01:20:26.926Z,15.97
2018-07-10T01:21:27.639Z,16.01
2018-07-10T01:22:28.352Z,15.94
2018-07-10T01:23:29.065Z,15.98
2018-07-10T01:24:29.778Z,16.00
2018-07-10T01:25:30.504Z,15.98
2018-07-10T01:26:31.228Z,15.97
2018-07-10T01:27:31.941Z,16.00
2018-07-10T01:28:32.653Z,16.02
2018-07-10T01:29:33.368Z,16.05
2018-07-10T01:30:34.081Z,16.01
2018-07-10T01:31:34.793Z,15.97
2018-07-10T01:32:35.505Z,15.97
2018-07-10T01:33:36.258Z,15.97
2018-07-10T01:34:36.944Z,15.94
2018-07-10T01:35:37.659Z,15.82
2018-07-10T01:36:38.385Z,15.88
2018-07-10T01:37:39.098Z,15.84
2018-07-10T01:38:39.810Z,15.82
2018-07-10T01:39:40.534Z,15.88
2018-07-10T01:40:41.249Z,15.83
2018-07-10T01:41:41.961Z,15.82
2018-07-10T01:42:42.687Z,15.73
2018-07-10T01:43:43.412Z,15.70
2018-07-10T01:44:44.124Z,15.75
2018-07-10T01:45:44.851Z,15.73
2018-07-10T01:46:45.598Z,15.75
2018-07-10T01:47:46.276Z,15.77
2018-07-10T01:48:47.001Z,15.59
2018-07-10T01:49:47.717Z,15.64
2018-07-10T01:50:48.426Z,15.65
2018-07-10T01:51:49.136Z,15.65
2018-07-10T01:52:49.849Z,15.59
2018-07-10T01:53:50.564Z,15.58
2018-07-10T01:54:51.288Z,15.72
2018-07-10T01:55:52.001Z,15.64
2018-07-10T01:56:52.716Z,15.61
2018-07-10T01:57:53.430Z,15.57
2018-07-10T01:58:54.143Z,15.55
2018-07-10T01:59:54.870Z,15.55
2018-07-10T02:00:55.583Z,15.54
2018-07-10T02:01:56.297Z,15.58
2018-07-10T02:02:57.022Z,15.59
2018-07-10T02:03:57.748Z,15.52
2018-07-10T02:04:58.468Z,15.51
2018-07-10T02:05:59.174Z,15.54
2018-07-10T02:06:59.890Z,15.47
2018-07-10T02:08:00.603Z,15.55
2018-07-10T02:09:01.319Z,15.54
2018-07-10T02:10:02.028Z,15.51
2018-07-10T02:11:02.742Z,15.42
2018-07-10T02:12:03.454Z,15.44
2018-07-10T02:13:04.178Z,15.40
2018-07-10T02:14:04.960Z,15.40
2018-07-10T02:15:05.617Z,15.39
2018-07-10T02:16:06.344Z,15.42
2018-07-10T02:17:07.069Z,15.39
2018-07-10T02:18:07.779Z,15.33
2018-07-10T02:19:08.491Z,15.43
2018-07-10T02:20:09.202Z,15.44
2018-07-10T02:21:09.914Z,15.43
2018-07-10T02:22:10.624Z,15.44
2018-07-10T02:23:11.337Z,15.42
2018-07-10T02:24:12.047Z,15.44
2018-07-10T02:25:12.759Z,15.43
2018-07-10T02:26:13.484Z,15.49
2018-07-10T02:27:14.195Z,15.47
2018-07-10T02:28:14.920Z,15.36
2018-07-10T02:29:15.631Z,15.36
2018-07-10T02:30:16.344Z,15.40
2018-07-10T02:31:17.056Z,15.39
2018-07-10T02:32:17.766Z,15.33
2018-07-10T02:33:18.493Z,15.33
2018-07-10T02:34:19.205Z,15.28
2018-07-10T02:35:19.918Z,15.36
2018-07-10T02:36:20.630Z,15.25
2018-07-10T02:37:21.356Z,15.17
2018-07-10T02:38:22.081Z,15.10
2018-07-10T02:39:22.805Z,15.15
2018-07-10T02:40:23.517Z,15.15
2018-07-10T02:41:24.227Z,15.15
2018-07-10T02:42:24.940Z,15.15
2018-07-10T02:43:25.653Z,15.00
2018-07-10T02:44:26.365Z,15.10
2018-07-10T02:45:27.078Z,15.07
2018-07-10T02:46:27.789Z,15.09
2018-07-10T02:47:28.517Z,15.10
2018-07-10T02:48:29.230Z,14.92
2018-07-10T02:49:29.940Z,14.96
2018-07-10T02:50:30.665Z,14.84
2018-07-10T02:51:31.376Z,14.82
2018-07-10T02:52:32.100Z,14.89
2018-07-10T02:53:32.811Z,14.85
2018-07-10T02:54:33.532Z,14.79
2018-07-10T02:55:34.248Z,14.79
2018-07-10T02:56:34.961Z,14.78
2018-07-10T02:57:35.678Z,14.70
2018-07-10T02:58:36.387Z,14.69
2018-07-10T02:59:37.114Z,14.69
2018-07-10T03:00:37.829Z,14.73
2018-07-10T03:01:38.542Z,14.72
2018-07-10T03:02:39.254Z,14.73
2018-07-10T03:03:39.966Z,14.72
2018-07-10T03:04:40.680Z,14.72
2018-07-10T03:05:41.392Z,14.70
2018-07-10T03:06:42.106Z,14.73
2018-07-10T03:07:42.830Z,14.60
2018-07-10T03:08:43.544Z,14.60
2018-07-10T03:09:44.272Z,14.65
2018-07-10T03:10:44.997Z,14.68
2018-07-10T03:11:45.710Z,14.62
2018-07-10T03:12:46.423Z,14.62
2018-07-10T03:13:47.147Z,14.62
2018-07-10T03:14:47.879Z,14.63
2018-07-10T03:15:48.601Z,14.55
2018-07-10T03:16:49.314Z,14.63
2018-07-10T03:17:50.025Z,14.54
2018-07-10T03:18:50.746Z,14.58
2018-07-10T03:19:51.451Z,14.47
2018-07-10T03:20:52.164Z,14.45
2018-07-10T03:21:52.879Z,14.53
2018-07-10T03:22:53.592Z,14.47
2018-07-10T03:23:54.316Z,14.48
2018-07-10T03:24:55.047Z,14.48
2018-07-10T03:25:55.758Z,14.44
2018-07-10T03:26:56.470Z,14.47
2018-07-10T03:27:57.195Z,14.45
2018-07-10T03:28:57.909Z,14.55
2018-07-10T03:29:58.636Z,14.51
2018-07-10T03:30:59.363Z,14.53
2018-07-10T03:32:00.079Z,14.59
2018-07-10T03:33:00.787Z,14.62
2018-07-10T03:34:01.515Z,14.62
2018-07-10T03:35:02.227Z,14.58
2018-07-10T03:36:02.942Z,14.47
2018-07-10T03:37:03.657Z,14.55
2018-07-10T03:38:04.388Z,14.59
2018-07-10T03:39:05.104Z,14.51
2018-07-10T03:40:05.823Z,14.60
2018-07-10T03:41:06.532Z,14.55
2018-07-10T03:42:07.258Z,14.55
2018-07-10T03:43:07.986Z,14.50
2018-07-10T03:44:08.701Z,14.59
2018-07-10T03:45:09.416Z,14.50
2018-07-10T03:46:10.130Z,14.50
2018-07-10T03:47:10.844Z,14.48
2018-07-10T03:48:11.557Z,14.40
2018-07-10T03:49:12.272Z,14.40
2018-07-10T03:50:12.986Z,14.45
2018-07-10T03:51:13.716Z,14.55
2018-07-10T03:52:14.444Z,14.48
2018-07-10T03:53:15.161Z,14.54
2018-07-10T03:54:15.886Z,14.54
2018-07-10T03:55:16.600Z,14.47
2018-07-10T03:56:17.317Z,14.53
2018-07-10T03:57:18.031Z,14.58
2018-07-10T03:58:18.746Z,14.54
2018-07-10T03:59:19.460Z,14.63
2018-07-10T04:00:20.178Z,14.62
2018-07-10T04:01:20.893Z,14.62
2018-07-10T04:02:21.611Z,14.53
2018-07-10T04:03:22.342Z,14.48
2018-07-10T04:04:23.054Z,14.55
2018-07-10T04:05:23.786Z,14.59
2018-07-10T04:06:24.511Z,14.62
2018-07-10T04:07:25.230Z,14.59
2018-07-10T04:08:25.942Z,14.65
2018-07-10T04:09:26.657Z,14.58
2018-07-10T04:10:27.374Z,14.59
2018-07-10T04:11:28.089Z,14.65
2018-07-10T04:12:28.804Z,14.66
2018-07-10T04:13:29.537Z,14.66
2018-07-10T04:14:30.249Z,14.72
2018-07-10T04:15:30.965Z,14.69
2018-07-10T04:16:31.683Z,14.70
2018-07-10T04:17:32.412Z,14.65
2018-07-10T04:18:33.130Z,14.70
2018-07-10T04:19:33.846Z,14.72
2018-07-10T04:20:34.564Z,14.69
2018-07-10T04:21:35.278Z,14.69
2018-07-10T04:22:35.997Z,14.77
2018-07-10T04:23:36.728Z,14.69
2018-07-10T04:24:37.444Z,14.78
2018-07-10T04:25:38.176Z,14.66
2018-07-10T04:26:38.892Z,14.62
2018-07-10T04:27:39.609Z,14.77
2018-07-10T04:28:40.325Z,14.72
2018-07-10T04:29:41.044Z,14.69
2018-07-10T04:30:41.760Z,14.73
2018-07-10T04:31:42.478Z,14.69
2018-07-10T04:32:43.193Z,14.72
2018-07-10T04:33:43.908Z,14.72
2018-07-10T04:34:44.627Z,14.63
2018-07-10T04:35:45.343Z,14.69
2018-07-10T04:36:46.059Z,14.70
2018-07-10T04:37:46.774Z,14.77
2018-07-10T04:38:47.490Z,14.60
2018-07-10T04:39:48.206Z,14.62
2018-07-10T04:40:48.926Z,14.66
2018-07-10T04:41:49.652Z,14.66
2018-07-10T04:42:50.369Z,14.77
2018-07-10T04:43:51.085Z,14.70
2018-07-10T04:44:51.819Z,14.77
2018-07-10T04:45:52.548Z,14.73
2018-07-10T04:46:53.264Z,14.72
2018-07-10T04:47:53.980Z,14.78
2018-07-10T04:48:54.741Z,14.82
2018-07-10T04:49:55.428Z,14.66
2018-07-10T04:50:56.142Z,14.77
2018-07-10T04:51:56.857Z,14.82
2018-07-10T04:52:57.572Z,14.84
2018-07-10T04:53:58.286Z,14.81
2018-07-10T04:54:59.002Z,14.85
2018-07-10T04:55:59.716Z,14.77
2018-07-10T04:57:00.431Z,14.79
2018-07-10T04:58:01.146Z,14.81
2018-07-10T04:59:01.877Z,14.79
2018-07-10T05:00:02.598Z,14.86
2018-07-10T05:01:03.313Z,14.81
2018-07-10T05:02:04.028Z,14.81
2018-07-10T05:03:04.759Z,14.81
2018-07-10T05:04:05.490Z,14.78
2018-07-10T05:05:06.218Z,14.81
2018-07-10T05:06:06.973Z,14.84
2018-07-10T05:07:07.651Z,14.82
2018-07-10T05:08:08.368Z,14.82
2018-07-10T05:09:09.099Z,14.81
2018-07-10T05:10:09.825Z,14.85
2018-07-10T05:11:10.542Z,14.92
2018-07-10T05:12:11.312Z,14.91
2018-07-10T05:13:11.983Z,14.96
2018-07-10T05:14:12.698Z,14.96
2018-07-10T05:15:13.415Z,14.99
2018-07-10T05:16:14.148Z,14.99
2018-07-10T05:17:14.878Z,15.04
2018-07-10T05:18:15.610Z,15.14
2018-07-10T05:19:16.329Z,15.07
2018-07-10T05:20:17.045Z,15.02
2018-07-10T05:21:17.764Z,14.94
2018-07-10T05:22:18.492Z,14.88
2018-07-10T05:23:19.207Z,14.99
2018-07-10T05:24:19.922Z,14.97
2018-07-10T05:25:20.637Z,15.04
2018-07-10T05:26:21.357Z,15.03
2018-07-10T05:27:22.075Z,15.15
2018-07-10T05:28:22.790Z,15.21
2018-07-10T05:29:23.519Z,15.19
2018-07-10T05:30:24.238Z,15.25
2018-07-10T05:31:24.963Z,15.15
2018-07-10T05:32:25.685Z,15.22
2018-07-10T05:33:26.399Z,15.17
2018-07-10T05:34:27.128Z,15.21
2018-07-10T05:35:27.844Z,15.21
2018-07-10T05:36:28.562Z,15.14
2018-07-10T05:37:29.289Z,15.15
2018-07-10T05:38:30.018Z,15.17
2018-07-10T05:39:30.733Z,15.19
2018-07-10T05:40:31.448Z,15.14
2018-07-10T05:41:32.164Z,15.31
2018-07-10T05:42:32.878Z,15.25
2018-07-10T05:43:33.608Z,15.28
2018-07-10T05:44:34.337Z,15.29
2018-07-10T05:45:35.055Z,15.19
2018-07-10T05:46:35.784Z,15.29
2018-07-10T05:47:36.513Z,15.28
2018-07-10T05:48:37.231Z,15.19
2018-07-10T05:49:37.962Z,15.24
2018-07-10T05:50:38.679Z,15.28
2018-07-10T05:51:39.449Z,15.24
2018-07-10T05:52:40.110Z,15.19
2018-07-10T05:53:40.826Z,15.24
2018-07-10T05:54:41.543Z,15.22
2018-07-10T05:55:42.259Z,15.17
2018-07-10T05:56:42.989Z,15.19
2018-07-10T05:57:43.709Z,15.27
2018-07-10T05:58:44.463Z,15.21
2018-07-10T05:59:45.179Z,15.28
2018-07-10T06:00:45.867Z,15.28
2018-07-10T06:01:46.597Z,15.33
2018-07-10T06:02:47.314Z,15.36
2018-07-10T06:03:48.032Z,15.39
2018-07-10T06:04:48.748Z,15.39
2018-07-10T06:05:49.479Z,15.44
2018-07-10T06:06:50.197Z,15.51
2018-07-10T06:07:50.914Z,15.46
2018-07-10T06:08:51.631Z,15.43
2018-07-10T06:09:52.362Z,15.52
2018-07-10T06:10:53.078Z,15.52
2018-07-10T06:11:53.794Z,15.37
2018-07-10T06:12:54.511Z,15.42
2018-07-10T06:13:55.270Z,15.40
2018-07-10T06:14:55.951Z,15.47
2018-07-10T06:15:56.682Z,15.44
2018-07-10T06:16:57.397Z,15.42
2018-07-10T06:17:58.114Z,15.47
2018-07-10T06:18:58.831Z,15.40
2018-07-10T06:19:59.547Z,15.42
2018-07-10T06:21:00.265Z,15.33
2018-07-10T06:22:00.995Z,15.42
2018-07-10T06:23:01.711Z,15.43
2018-07-10T06:24:02.429Z,15.40
2018-07-10T06:25:03.146Z,15.39
2018-07-10T06:26:03.862Z,15.54
2018-07-10T06:27:04.579Z,15.47
2018-07-10T06:28:05.298Z,15.46
2018-07-10T06:29:06.014Z,15.54
2018-07-10T06:30:06.745Z,15.59
2018-07-10T06:31:07.461Z,15.65
2018-07-10T06:32:08.193Z,15.80
2018-07-10T06:33:08.915Z,15.77
2018-07-10T06:34:09.645Z,15.80
2018-07-10T06:35:10.376Z,15.91
2018-07-10T06:36:11.108Z,15.94
2018-07-10T06:37:11.824Z,15.90
2018-07-10T06:38:12.541Z,15.79
2018-07-10T06:39:13.273Z,15.55
2018-07-10T06:40:13.989Z,15.57
2018-07-10T06:41:14.706Z,15.44
2018-07-10T06:42:15.421Z,15.42
2018-07-10T06:43:16.138Z,15.43
2018-07-10T06:44:16.856Z,15.40
2018-07-10T06:45:17.571Z,15.39
2018-07-10T06:46:18.288Z,15.44
2018-07-10T06:47:19.020Z,15.42
2018-07-10T06:48:19.750Z,15.42
2018-07-10T06:49:20.483Z,15.37
2018-07-10T06:50:21.209Z,15.40
2018-07-10T06:51:21.926Z,15.40
2018-07-10T06:52:22.782Z,15.37
2018-07-10T06:53:23.656Z,15.25
2018-07-10T06:54:24.072Z,15.27
2018-07-10T06:55:24.788Z,15.28
2018-07-10T06:56:25.508Z,15.25
2018-07-10T06:57:26.235Z,15.27
2018-07-10T06:58:26.954Z,15.35
2018-07-10T06:59:27.671Z,15.31
2018-07-10T07:00:28.389Z,15.35
2018-07-10T07:01:29.108Z,15.40
2018-07-10T07:02:29.827Z,15.37
2018-07-10T07:03:30.547Z,15.36
2018-07-10T07:04:31.262Z,15.37
2018-07-10T07:05:31.982Z,15.51
2018-07-10T07:06:32.709Z,15.44
2018-07-10T07:07:33.482Z,15.44
2018-07-10T07:08:34.158Z,15.44
2018-07-10T07:09:34.875Z,15.39
2018-07-10T07:10:35.593Z,15.33
2018-07-10T07:11:36.310Z,15.28
2018-07-10T07:12:37.026Z,15.25
2018-07-10T07:13:37.742Z,15.17
2018-07-10T07:14:38.460Z,15.28
2018-07-10T07:15:39.191Z,15.31
2018-07-10T07:16:39.908Z,15.29
2018-07-10T07:17:40.626Z,15.15
2018-07-10T07:18:41.357Z,15.17
2018-07-10T07:19:42.072Z,14.99
2018-07-10T07:20:42.790Z,14.85
2018-07-10T07:21:43.520Z,15.09
2018-07-10T07:22:44.235Z,14.89
2018-07-10T07:23:45.005Z,14.94
2018-07-10T07:24:45.666Z,14.94
2018-07-10T07:25:46.385Z,14.91
2018-07-10T07:26:47.102Z,14.94
2018-07-10T07:27:47.835Z,14.96
2018-07-10T07:28:48.552Z,14.94
2018-07-10T07:29:49.270Z,14.96
2018-07-10T07:30:49.990Z,15.07
2018-07-10T07:31:50.709Z,14.84
2018-07-10T07:32:51.442Z,14.69
2018-07-10T07:33:52.157Z,14.63
2018-07-10T07:34:52.883Z,14.66
2018-07-10T07:35:53.598Z,14.54
2018-07-10T07:36:54.312Z,14.68
2018-07-10T07:37:55.032Z,14.65
2018-07-10T07:38:55.760Z,14.66
2018-07-10T07:39:56.477Z,14.66
2018-07-10T07:40:57.196Z,14.50
2018-07-10T07:41:57.914Z,14.53
2018-07-10T07:42:58.632Z,14.51
2018-07-10T07:43:59.428Z,14.37
2018-07-10T07:45:00.078Z,14.45
2018-07-10T07:46:00.790Z,14.35
2018-07-10T07:47:01.521Z,14.40
2018-07-10T07:48:02.251Z,14.30
2018-07-10T07:49:02.979Z,14.29
2018-07-10T07:50:03.709Z,14.36
2018-07-10T07:51:04.425Z,14.40
2018-07-10T07:52:05.144Z,14.37
2018-07-10T07:53:05.859Z,14.32
2018-07-10T07:54:06.591Z,14.41
2018-07-10T07:55:07.309Z,14.41
2018-07-10T07:56:08.027Z,14.37
2018-07-10T07:57:08.743Z,14.43
2018-07-10T07:58:09.461Z,14.37
2018-07-10T07:59:10.177Z,14.37
2018-07-10T08:00:10.897Z,14.41
2018-07-10T08:01:11.626Z,14.33
2018-07-10T08:02:12.345Z,14.30
2018-07-10T08:03:13.069Z,14.32
2018-07-10T08:04:13.786Z,14.26
2018-07-10T08:05:14.519Z,14.25
2018-07-10T08:06:15.239Z,14.32
2018-07-10T08:07:15.953Z,14.28
2018-07-10T08:08:16.673Z,14.33
2018-07-10T08:09:17.386Z,14.26
2018-07-10T08:10:18.103Z,14.29
2018-07-10T08:11:18.819Z,14.14
2018-07-10T08:12:19.545Z,14.14
2018-07-10T08:13:20.256Z,14.11
2018-07-10T08:14:20.973Z,14.11
2018-07-10T08:15:21.688Z,14.11
2018-07-10T08:16:22.404Z,14.18
2018-07-10T08:17:23.131Z,14.07
2018-07-10T08:18:23.850Z,14.15
2018-07-10T08:19:24.567Z,14.08
2018-07-10T08:20:25.285Z,14.10
2018-07-10T08:21:26.001Z,14.15
2018-07-10T08:22:26.732Z,14.17
2018-07-10T08:23:27.445Z,14.28
2018-07-10T08:24:28.247Z,14.18
2018-07-10T08:25:28.878Z,14.12
2018-07-10T08:26:29.595Z,14.08
2018-07-10T08:27:30.326Z,14.12
2018-07-10T08:28:31.264Z,14.10
2018-07-10T08:29:31.981Z,14.05
2018-07-10T08:30:32.699Z,14.11
2018-07-10T08:31:33.419Z,14.12
2018-07-10T08:32:34.146Z,14.05
2018-07-10T08:33:35.013Z,14.00
2018-07-10T08:34:35.581Z,14.14
2018-07-10T08:35:36.297Z,14.17
2018-07-10T08:36:37.027Z,14.17
2018-07-10T08:37:37.742Z,14.05
2018-07-10T08:38:38.488Z,14.12
2018-07-10T08:39:39.182Z,14.17
2018-07-10T08:40:39.895Z,14.26
2018-07-10T08:41:40.611Z,14.12
2018-07-10T08:42:41.329Z,14.28
2018-07-10T08:43:42.049Z,14.23
2018-07-10T08:44:42.774Z,14.15
2018-07-10T08:45:43.481Z,14.15
2018-07-10T08:46:44.196Z,14.18
2018-07-10T08:47:44.913Z,14.12
2018-07-10T08:48:45.643Z,14.08
2018-07-10T08:49:46.361Z,14.11
2018-07-10T08:50:47.145Z,14.10
2018-07-10T08:51:47.806Z,14.11
2018-07-10T08:52:48.523Z,14.08
2018-07-10T08:53:49.238Z,14.12
2018-07-10T08:54:49.953Z,14.12
2018-07-10T08:55:50.670Z,14.17
2018-07-10T08:56:51.399Z,14.15
2018-07-10T08:57:52.115Z,14.11
2018-07-10T08:58:52.834Z,14.17
2018-07-10T08:59:53.582Z,14.18
2018-07-10T09:00:54.282Z,14.10
2018-07-10T09:01:54.996Z,14.08
2018-07-10T09:02:55.712Z,14.14
2018-07-10T09:03:56.427Z,14.18
2018-07-10T09:04:57.145Z,14.20
2018-07-10T09:05:57.863Z,14.26
2018-07-10T09:06:58.580Z,14.37
2018-07-10T09:07:59.321Z,14.45
2018-07-10T09:09:00.023Z,14.36
2018-07-10T09:10:00.752Z,14.41
2018-07-10T09:11:01.470Z,14.37
2018-07-10T09:12:02.186Z,14.41
2018-07-10T09:13:02.917Z,14.41
2018-07-10T09:14:03.632Z,14.36
2018-07-10T09:15:04.362Z,14.37
2018-07-10T09:16:05.081Z,14.50
2018-07-10T09:17:05.804Z,14.53
2018-07-10T09:18:06.527Z,14.53
2018-07-10T09:19:07.241Z,14.45
2018-07-10T09:20:07.960Z,14.59
2018-07-10T09:21:08.677Z,14.53
2018-07-10T09:22:09.410Z,14.54
2018-07-10T09:23:10.145Z,14.63
2018-07-10T09:24:10.846Z,14.60
2018-07-10T09:25:11.566Z,14.58
2018-07-10T09:26:12.285Z,14.59
2018-07-10T09:27:13.002Z,14.73
2018-07-10T09:28:13.734Z,14.65
2018-07-10T09:29:14.452Z,14.62
2018-07-10T09:30:15.170Z,14.70
2018-07-10T09:31:15.889Z,14.79
2018-07-10T09:32:16.610Z,14.60
2018-07-10T09:33:17.343Z,14.73
2018-07-10T09:34:18.061Z,14.66
2018-07-10T09:35:18.781Z,14.72
2018-07-10T09:36:19.501Z,14.65
2018-07-10T09:37:20.233Z,14.70
2018-07-10T09:38:20.967Z,14.77
2018-07-10T09:39:21.695Z,14.65
2018-07-10T09:40:22.424Z,14.78
2018-07-10T09:41:23.156Z,14.63
2018-07-10T09:42:23.876Z,14.68
2018-07-10T09:43:24.596Z,14.60
2018-07-10T09:44:25.371Z,14.70
2018-07-10T09:45:26.027Z,14.73
2018-07-10T09:46:26.763Z,14.69
2018-07-10T09:47:27.475Z,14.63
2018-07-10T09:48:28.193Z,14.69
2018-07-10T09:49:28.909Z,14.66
2018-07-10T09:50:29.627Z,14.66
2018-07-10T09:51:30.343Z,14.59
2018-07-10T09:52:31.070Z,14.65
2018-07-10T09:53:31.785Z,14.65
2018-07-10T09:54:32.503Z,14.65
2018-07-10T09:55:33.224Z,14.66
2018-07-10T09:56:33.952Z,14.58
2018-07-10T09:57:34.671Z,14.59
2018-07-10T09:58:35.403Z,14.54
2018-07-10T09:59:36.122Z,14.58
2018-07-10T10:00:36.834Z,14.53
2018-07-10T10:01:37.553Z,14.55
2018-07-10T10:02:38.286Z,14.45
2018-07-10T10:03:39.012Z,14.51
2018-07-10T10:04:39.728Z,14.55
2018-07-10T10:05:40.444Z,14.40
2018-07-10T10:06:41.162Z,14.45
2018-07-10T10:07:41.878Z,14.41
2018-07-10T10:08:42.600Z,14.41
2018-07-10T10:09:43.312Z,14.55
2018-07-10T10:10:44.031Z,14.53
2018-07-10T10:11:44.761Z,14.69
2018-07-10T10:12:45.480Z,14.60
2018-07-10T10:13:46.195Z,14.66
2018-07-10T10:14:46.912Z,14.73
2018-07-10T10:15:47.645Z,14.69
2018-07-10T10:16:48.361Z,14.70
2018-07-10T10:17:49.079Z,14.82
2018-07-10T10:18:49.797Z,14.78
2018-07-10T10:19:50.514Z,14.85
2018-07-10T10:20:51.232Z,14.82
2018-07-10T10:21:51.952Z,14.84
2018-07-10T10:22:52.671Z,14.81
2018-07-10T10:23:53.404Z,14.85
2018-07-10T10:24:54.119Z,14.79
2018-07-10T10:25:54.927Z,14.86
2018-07-10T10:26:55.554Z,14.89
2018-07-10T10:27:56.273Z,14.94
2018-07-10T10:28:56.988Z,14.89
2018-07-10T10:29:57.703Z,15.00
2018-07-10T10:30:58.419Z,14.99
2018-07-10T10:31:59.135Z,14.84
2018-07-10T10:32:59.866Z,14.97
2018-07-10T10:34:00.586Z,14.86
2018-07-10T10:35:01.301Z,14.88
2018-07-10T10:36:02.019Z,14.89
2018-07-10T10:37:02.735Z,14.88
2018-07-10T10:38:03.452Z,14.81
2018-07-10T10:39:04.169Z,14.82
2018-07-10T10:40:04.899Z,14.84
2018-07-10T10:41:05.619Z,14.84
2018-07-10T10:42:06.337Z,14.82
2018-07-10T10:43:07.056Z,14.86
2018-07-10T10:44:07.774Z,14.84
2018-07-10T10:45:08.505Z,14.88
2018-07-10T10:46:09.221Z,14.78
2018-07-10T10:47:09.952Z,14.89
2018-07-10T10:48:10.685Z,14.88
2018-07-10T10:49:11.404Z,14.84
2018-07-10T10:50:12.121Z,14.94
2018-07-10T10:51:12.850Z,14.97
2018-07-10T10:52:13.570Z,14.94
2018-07-10T10:53:14.289Z,15.02
2018-07-10T10:54:15.006Z,15.09
2018-07-10T10:55:15.737Z,15.06
2018-07-10T10:56:16.455Z,15.03
2018-07-10T10:57:17.174Z,15.15
2018-07-10T10:58:17.890Z,15.15
2018-07-10T10:59:18.623Z,15.19
2018-07-10T11:00:19.340Z,15.09
2018-07-10T11:01:20.059Z,15.18
2018-07-10T11:02:20.829Z,15.24
2018-07-10T11:03:21.510Z,15.35
2018-07-10T11:04:22.228Z,15.29
2018-07-10T11:05:22.960Z,15.39
2018-07-10T11:06:23.679Z,15.40
2018-07-10T11:07:24.395Z,15.43
2018-07-10T11:08:25.116Z,15.55
2018-07-10T11:09:25.838Z,15.65
2018-07-10T11:10:26.571Z,15.77
2018-07-10T11:11:27.291Z,15.76
2018-07-10T11:12:28.011Z,15.83
2018-07-10T11:13:28.731Z,15.90
2018-07-10T11:14:29.452Z,16.01
2018-07-10T11:15:30.178Z,16.08
2018-07-10T11:16:30.890Z,16.09
2018-07-10T11:17:31.610Z,16.10
2018-07-10T11:18:32.346Z,16.17
2018-07-10T11:19:33.070Z,16.36
2018-07-10T11:20:33.787Z,16.36
2018-07-10T11:21:34.507Z,16.51
2018-07-10T11:22:35.229Z,16.51
2018-07-10T11:23:35.965Z,16.61
2018-07-10T11:24:36.686Z,16.64
2018-07-10T11:25:37.407Z,16.69
2018-07-10T11:26:38.126Z,16.74
2018-07-10T11:27:38.846Z,16.58
2018-07-10T11:28:39.569Z,16.57
2018-07-10T11:29:40.303Z,16.71
2018-07-10T11:30:41.025Z,16.81
2018-07-10T11:31:41.747Z,16.87
2018-07-10T11:32:42.468Z,16.83
2018-07-10T11:33:43.189Z,16.96
2018-07-10T11:34:43.909Z,16.84
2018-07-10T11:35:44.639Z,17.02
2018-07-10T11:36:45.360Z,17.02
2018-07-10T11:37:46.082Z,16.97
2018-07-10T11:38:46.804Z,17.09
2018-07-10T11:39:47.526Z,17.16
2018-07-10T11:40:48.246Z,17.23
2018-07-10T11:41:48.966Z,17.20
2018-07-10T11:42:49.686Z,17.22
2018-07-10T11:43:50.408Z,17.27
2018-07-10T11:44:51.129Z,17.29
2018-07-10T11:45:51.854Z,17.41
2018-07-10T11:46:52.574Z,17.33
2018-07-10T11:47:53.295Z,17.49
2018-07-10T11:48:54.016Z,17.51
2018-07-10T11:49:54.751Z,17.46
2018-07-10T11:50:55.471Z,17.38
2018-07-10T11:51:56.191Z,17.38
2018-07-10T11:52:56.910Z,17.34
2018-07-10T11:53:57.632Z,17.36
2018-07-10T11:54:58.351Z,17.36
2018-07-10T11:55:59.074Z,17.29
2018-07-10T11:56:59.806Z,17.22
2018-07-10T11:58:00.527Z,17.24
2018-07-10T11:59:01.261Z,17.29
2018-07-10T12:00:01.982Z,17.42
2018-07-10T12:01:02.716Z,17.33
2018-07-10T12:02:03.438Z,17.45
2018-07-10T12:03:04.177Z,17.56
2018-07-10T12:04:04.918Z,17.87
2018-07-10T12:05:05.655Z,18.16
2018-07-10T12:06:06.377Z,18.33
2018-07-10T12:07:07.101Z,18.34
2018-07-10T12:08:07.826Z,18.20
2018-07-10T12:09:08.547Z,18.28
2018-07-10T12:10:09.271Z,18.28
2018-07-10T12:11:09.993Z,18.34
2018-07-10T12:12:10.730Z,18.35
2018-07-10T12:13:11.452Z,18.23
2018-07-10T12:14:12.176Z,18.53
2018-07-10T12:15:12.900Z,18.73
2018-07-10T12:16:13.623Z,18.74
2018-07-10T12:17:14.361Z,18.83
2018-07-10T12:18:15.090Z,18.81
2018-07-10T12:19:15.812Z,18.65
2018-07-10T12:20:16.536Z,18.78
2018-07-10T12:21:17.260Z,18.71
2018-07-10T12:22:17.984Z,18.86
2018-07-10T12:23:18.708Z,18.83
2018-07-10T12:24:19.445Z,18.92
2018-07-10T12:25:20.170Z,18.78
2018-07-10T12:26:20.908Z,18.78
2018-07-10T12:27:21.632Z,18.68
2018-07-10T12:28:22.353Z,18.70
2018-07-10T12:29:23.087Z,18.66
2018-07-10T12:30:23.825Z,18.62
2018-07-10T12:31:24.546Z,18.25
2018-07-10T12:32:25.268Z,18.18
2018-07-10T12:33:25.991Z,18.26
2018-07-10T12:34:26.714Z,18.25
2018-07-10T12:35:27.436Z,18.47
2018-07-10T12:36:28.160Z,18.41
2018-07-10T12:37:28.884Z,18.56
2018-07-10T12:38:29.622Z,18.65
2018-07-10T12:39:30.348Z,18.71
2018-07-10T12:40:31.073Z,19.12
2018-07-10T12:41:31.813Z,19.29
2018-07-10T12:42:32.538Z,19.47
2018-07-10T12:43:33.265Z,19.45
2018-07-10T12:44:34.006Z,19.54
2018-07-10T12:45:34.745Z,19.41
2018-07-10T12:46:35.492Z,19.37
2018-07-10T12:47:36.224Z,19.14
2018-07-10T12:48:36.952Z,19.02
2018-07-10T12:49:37.687Z,18.74
2018-07-10T12:50:38.409Z,18.74
2018-07-10T12:51:39.131Z,18.71
2018-07-10T12:52:39.853Z,18.52
2018-07-10T12:53:40.581Z,18.53
2018-07-10T12:54:41.310Z,18.74
2018-07-10T12:55:42.037Z,18.73
2018-07-10T12:56:42.762Z,18.59
2018-07-10T12:57:43.499Z,18.66
2018-07-10T12:58:44.235Z,18.77
2018-07-10T12:59:44.956Z,18.81
2018-07-10T13:00:45.682Z,19.07
2018-07-10T13:01:46.405Z,18.89